Details for FedEx at KMEM




Go Back


Latest METAR
Local Time

KMEM 180403Z 00000KT 10SM SCT023 SCT200 07/05 A3026 RMK AO2 T00670050 $

17/02/2018, 22:36:37

Description
Results
FedEx Logo
Number of Pilots based at KMEM
0 Pilots Based here
Number of FedEx Flights Departed from KMEM
0 Flights Departed
Number of FedEx Flights Arrived at KMEM
0 Flights Arrived
Number of FedEx Schedules Departing from KMEM
1045 Schedules
Number of FedEx Schedules Arriving at KMEM
1053 Schedules
Number of FedEx Schedules Departing from KMEM availible today
113 Schedules Today
Number of FedEx Schedules Arriving at KMEM availible today
86 Schedules Today
Average Landing Rate at KMEM
0 fpm
FedEx Average Landing Rate at KMEM
0 fpm
Total Fuel Purchased at KMEM by FedEx
0.00 kgs / 0.00 lbs

Pilots Based at KMEM


Pilot ID
Pilot Name
Pilot Rank
No. of Flights
No. of Flying Hours
There are no pilots assigned to this hub!   Will you be the first?
Content